South Aberdeen, Washington
Current Conditions -  °F | °C
As of 8:07 PM on Tuesday 25 Nov 2014 (Local Time) from KHQM Reporting Station
Haze Haze  
Wind Chill: 56°   Ceiling: 700
Heat Index: 56°   Visibility: 6mi
Dew Point: 55°   Wind: 20mph
Humidity: 97%   Direction: 200°SSW
Pressure: 30.19"   Gusts: NA
Location:  47.1445°N, 123.771°W
Report Text: KHQM 260407Z AUTO 20017KT 6SM BR BKN007 BKN040 OVC055 13/13 A3019 RMK AO2 T01330128
Loading
Personal Weather Stations






























Interactive Weather Map New forecast layout! Learn more

10-Day Weather Forecast

Advertisements
Track Severe Weather on mobile